Time;durP1;ratioP1;P1;durP2;ratioP2;P2;SDS_P1;SDS_P2;PMS_P1;PMS_P2;Temp;Humidity;BMP_temperature;BMP_pressure;BME280_temperature;BME280_humidity;BME280_pressure;Samples;Min_cycle;Max_cycle;Signal;HPM_P1;HPM_P2
2021/12/23 00:01:35;;;;;;;176.70;91.10;;;;;;;-6.56;96.03;99852.76;102022;1316;61336;-77
2021/12/23 00:04:02;;;;;;;179.70;97.30;;;;;;;-6.61;95.98;99851.98;102272;1310;62203;-78
2021/12/23 00:06:28;;;;;;;176.60;93.10;;;;;;;-6.66;95.88;99850.52;101945;1318;76238;-78
2021/12/23 00:08:58;;;;;;;175.30;91.90;;;;;;;-6.73;95.85;99844.88;102307;1310;69427;-78
2021/12/23 00:11:25;;;;;;;;;;;;;;;-6.74;95.88;99838.11;102422;1313;73860;-78
2021/12/23 00:14:01;;;;;;;158.70;84.60;;;;;;;-6.81;95.73;99832.30;102454;1310;61419;-78
2021/12/23 00:16:43;;;;;;;164.20;87.20;;;;;;;-6.90;95.76;99831.81;102269;1310;61183;-78
2021/12/23 00:24:41;;;;;;;157.20;85.20;;;;;;;-7.07;96.08;99838.43;102324;1310;73364;-78
2021/12/23 00:27:09;;;;;;;172.10;94.10;;;;;;;-7.09;96.09;99835.11;102311;1310;61653;-79
2021/12/23 00:29:35;;;;;;;174.20;93.60;;;;;;;-7.09;96.15;99830.63;102309;1316;61294;-78
2021/12/23 00:32:07;;;;;;;181.60;94.40;;;;;;;-7.08;96.30;99826.84;102287;1317;73643;-79
2021/12/23 00:34:35;;;;;;;182.70;93.30;;;;;;;-7.09;96.27;99820.63;102064;1316;70306;-78
2021/12/23 00:37:04;;;;;;;175.60;93.00;;;;;;;-7.10;96.25;99821.46;102413;1316;73232;-79
2021/12/23 00:39:31;;;;;;;164.50;90.80;;;;;;;-7.11;96.35;99820.77;102254;1310;61355;-79
2021/12/23 00:42:06;;;;;;;162.00;86.20;;;;;;;-7.08;96.45;99819.93;102392;1310;61376;-80
2021/12/23 00:44:40;;;;;;;166.10;88.60;;;;;;;-7.03;96.50;99818.96;102357;1310;75246;-80
2021/12/23 00:47:07;;;;;;;160.40;88.20;;;;;;;-7.03;96.56;99813.61;102665;1310;69365;-79
2021/12/23 00:49:33;;;;;;;157.70;88.60;;;;;;;-7.05;96.57;99811.70;102290;1316;73533;-79
2021/12/23 00:52:02;;;;;;;160.10;91.10;;;;;;;-7.06;96.46;99813.91;102361;1313;61334;-79
2021/12/23 00:54:29;;;;;;;151.70;86.90;;;;;;;-7.10;96.32;99816.79;102338;1310;61746;-79
2021/12/23 00:56:56;;;;;;;171.90;90.70;;;;;;;-7.16;96.24;99815.98;102312;1310;77128;-78
2021/12/23 00:59:23;;;;;;;160.20;88.20;;;;;;;-7.19;96.40;99811.10;102305;1310;69245;-77
2021/12/23 01:01:50;;;;;;;157.80;89.70;;;;;;;-7.21;96.45;99804.69;102606;1313;74759;-80
2021/12/23 01:04:16;;;;;;;159.20;86.70;;;;;;;-7.26;96.33;99800.46;102605;1310;61325;-77
2021/12/23 01:06:43;;;;;;;160.60;88.30;;;;;;;-7.30;96.30;99802.29;102635;1310;61294;-78
2021/12/23 01:09:10;;;;;;;160.40;85.00;;;;;;;-7.35;96.44;99798.40;103312;1313;75288;-78
2021/12/23 01:11:36;;;;;;;153.80;85.90;;;;;;;-7.36;96.61;99794.41;102798;1310;1015908;-77
2021/12/23 01:14:26;;;;;;;161.70;83.70;;;;;;;-7.37;96.62;99792.33;103030;1310;61189;-78
2021/12/23 01:19:24;;;;;;;145.20;82.90;;;;;;;-7.45;96.48;99792.18;102434;1310;62053;-79
2021/12/23 01:21:51;;;;;;;163.70;88.10;;;;;;;-7.50;96.57;99789.49;102547;1317;76491;-79
2021/12/23 01:24:18;;;;;;;153.10;80.30;;;;;;;-7.51;96.61;99787.93;102413;1314;68685;-78
2021/12/23 01:26:44;;;;;;;161.70;87.30;;;;;;;-7.54;96.67;99789.43;102318;1310;71425;-77
2021/12/23 01:29:11;;;;;;;152.80;83.40;;;;;;;-7.56;96.68;99786.29;102254;1316;61428;-79
2021/12/23 01:31:38;;;;;;;157.80;82.90;;;;;;;-7.58;96.74;99784.88;102274;1314;62138;-79
2021/12/23 01:34:06;;;;;;;149.40;84.90;;;;;;;-7.60;96.76;99783.61;102328;1310;75566;-78
2021/12/23 01:36:32;;;;;;;157.90;84.60;;;;;;;-7.63;96.81;99780.46;102325;1310;69132;-78
2021/12/23 01:38:59;;;;;;;160.30;87.90;;;;;;;-7.68;96.70;99773.98;102278;1317;72932;-78
2021/12/23 01:41:28;;;;;;;161.40;88.30;;;;;;;-7.75;96.62;99770.92;102292;1310;61295;-78
2021/12/23 01:43:55;;;;;;;141.00;79.60;;;;;;;-7.82;96.56;99767.69;102329;1310;61589;-79
2021/12/23 01:46:23;;;;;;;158.20;85.50;;;;;;;-7.85;96.62;99759.34;102384;1310;72996;-78
2021/12/23 01:48:51;;;;;;;161.20;90.30;;;;;;;-7.86;96.78;99758.98;102318;1310;69397;-78
2021/12/23 01:51:19;;;;;;;160.30;94.60;;;;;;;-7.88;96.81;99752.75;102252;1317;74440;-79
2021/12/23 01:53:46;;;;;;;158.40;92.00;;;;;;;-7.90;96.65;99750.44;102441;1310;61238;-79
2021/12/23 01:56:13;;;;;;;148.70;89.40;;;;;;;-7.95;96.62;99753.65;102063;1318;61435;-78
2021/12/23 01:58:41;;;;;;;135.50;79.60;;;;;;;-7.96;96.72;99754.49;102440;1310;76230;-80
2021/12/23 02:01:09;;;;;;;143.90;77.10;;;;;;;-7.96;96.87;99748.44;102584;1311;68511;-78
2021/12/23 02:03:37;;;;;;;153.80;89.60;;;;;;;-7.95;96.81;99743.80;102387;1310;74407;-78
2021/12/23 02:06:04;;;;;;;147.40;84.70;;;;;;;-7.97;96.89;99740.66;102430;1311;61361;-78
2021/12/23 02:08:32;;;;;;;161.10;94.50;;;;;;;-7.99;96.84;99736.49;102338;1310;61886;-78
2021/12/23 02:11:01;;;;;;;154.40;89.90;;;;;;;-8.00;96.81;99735.77;102473;1310;76493;-79
2021/12/23 02:13:28;;;;;;;139.50;83.10;;;;;;;-8.06;96.57;99738.42;102483;1310;70447;-78
2021/12/23 02:15:55;;;;;;;159.30;98.10;;;;;;;-8.09;96.67;99739.22;102509;1316;73825;-78
2021/12/23 02:18:22;;;;;;;151.70;87.60;;;;;;;-8.13;96.65;99734.83;102474;1314;61310;-78
2021/12/23 02:20:49;;;;;;;155.20;93.00;;;;;;;-8.16;96.55;99734.09;102444;1317;62863;-78
2021/12/23 02:23:16;;;;;;;139.90;79.00;;;;;;;-8.18;96.70;99729.05;102319;1313;75324;-78
2021/12/23 02:25:43;;;;;;;139.30;77.00;;;;;;;-8.19;96.90;99726.27;102374;1310;69316;-79
2021/12/23 02:28:15;;;;;;;134.10;77.40;;;;;;;-8.20;96.83;99722.63;101706;1310;1015494;-78
2021/12/23 02:30:42;;;;;;;143.10;79.80;;;;;;;-8.22;96.90;99715.01;102259;1310;61443;-78
2021/12/23 02:33:09;;;;;;;128.10;73.70;;;;;;;-8.24;97.00;99715.14;102374;1313;61416;-78
2021/12/23 02:35:37;;;;;;;128.50;75.90;;;;;;;-8.23;96.91;99712.92;102478;1310;76260;-77
2021/12/23 02:38:04;;;;;;;135.20;77.80;;;;;;;-8.24;96.94;99703.25;102519;1313;69480;-77
2021/12/23 02:40:42;;;;;;;139.50;79.50;;;;;;;-8.25;96.81;99701.48;102009;1318;72918;-77
2021/12/23 02:43:13;;;;;;;126.00;74.00;;;;;;;-8.28;96.75;99698.69;102616;1310;61383;-79
2021/12/23 02:45:42;;;;;;;129.20;72.30;;;;;;;-8.31;96.71;99700.01;101916;1316;1003023;-78
2021/12/23 02:48:31;;;;;;;133.00;71.50;;;;;;;-8.31;96.67;99697.41;102425;1313;75204;-79
2021/12/23 02:51:01;;;;;;;115.70;65.20;;;;;;;-8.31;96.73;99694.15;102480;1316;69231;-78
2021/12/23 02:53:28;;;;;;;124.40;69.40;;;;;;;-8.30;96.79;99689.85;102968;1310;72335;-77
2021/12/23 02:55:57;;;;;;;123.00;68.10;;;;;;;-8.30;96.71;99686.91;102825;1310;61250;-77
2021/12/23 02:58:24;;;;;;;120.50;68.80;;;;;;;-8.29;96.83;99688.68;102975;1310;62233;-78
2021/12/23 03:00:52;;;;;;;123.10;67.90;;;;;;;-8.26;96.85;99686.32;102964;1311;74684;-78
2021/12/23 03:03:19;;;;;;;129.90;71.10;;;;;;;-8.24;96.81;99683.59;103116;1310;70815;-77
2021/12/23 03:05:51;;;;;;;124.70;67.80;;;;;;;-8.22;96.84;99683.27;103202;1311;72665;-78
2021/12/23 03:08:47;;;;;;;113.50;66.40;;;;;;;-8.22;96.61;99681.91;103379;1317;60104;-78
2021/12/23 03:11:19;;;;;;;120.70;68.10;;;;;;;-8.22;96.64;99678.11;103739;1310;60819;-78
2021/12/23 03:13:47;;;;;;;121.50;67.20;;;;;;;-8.20;96.71;99669.38;103390;1317;75469;-78
2021/12/23 03:16:18;;;;;;;113.20;64.90;;;;;;;-8.14;96.87;99672.08;103503;1310;70249;-77
2021/12/23 03:18:44;;;;;;;122.00;67.70;;;;;;;-8.09;97.00;99665.27;102963;1316;73358;-79
2021/12/23 03:21:11;;;;;;;118.00;66.80;;;;;;;-8.02;97.10;99664.70;102435;1311;61424;-78
2021/12/23 03:23:38;;;;;;;117.10;65.00;;;;;;;-8.00;96.83;99662.86;102543;1310;61223;-78
2021/12/23 03:26:05;;;;;;;113.10;63.50;;;;;;;-7.99;96.71;99660.10;102561;1311;75572;-78
2021/12/23 03:28:32;;;;;;;117.20;66.70;;;;;;;-7.97;96.67;99654.96;102511;1310;69350;-78
2021/12/23 03:31:00;;;;;;;116.10;65.00;;;;;;;-7.93;96.86;99647.95;102485;1311;73534;-77
2021/12/23 03:33:27;;;;;;;110.60;63.50;;;;;;;-7.90;96.77;99649.90;102393;1315;61278;-78
2021/12/23 03:35:54;;;;;;;120.50;66.40;;;;;;;-7.92;96.65;99644.88;102402;1310;61378;-78
2021/12/23 03:38:24;;;;;;;112.60;64.40;;;;;;;-7.94;96.69;99640.70;102150;1312;74686;-78
2021/12/23 03:40:51;;;;;;;125.70;66.40;;;;;;;-7.97;96.59;99636.17;102375;1310;69559;-78
2021/12/23 03:43:18;;;;;;;114.00;63.70;;;;;;;-8.01;96.43;99638.00;102277;1311;73440;-78
2021/12/23 03:45:48;;;;;;;112.40;65.70;;;;;;;-8.08;96.31;99635.98;102286;1316;61368;-78
2021/12/23 03:48:17;;;;;;;126.00;70.00;;;;;;;-8.14;96.44;99633.28;102335;1310;61341;-78
2021/12/23 03:50:45;;;;;;;130.10;77.10;;;;;;;-8.20;96.45;99633.17;102041;1313;75510;-79
2021/12/23 03:53:12;;;;;;;115.20;66.80;;;;;;;-8.24;96.47;99628.61;102264;1311;70614;-79
2021/12/23 03:55:40;;;;;;;119.00;70.10;;;;;;;-8.25;96.64;99626.86;102318;1313;73432;-78
2021/12/23 03:58:06;;;;;;;119.60;67.40;;;;;;;-8.26;96.68;99619.79;102359;1310;61212;-78
2021/12/23 04:00:33;;;;;;;122.90;64.50;;;;;;;-8.27;96.80;99619.23;102307;1310;61386;-78
2021/12/23 04:03:00;;;;;;;116.90;65.80;;;;;;;-8.29;96.69;99624.38;102419;1317;75256;-78
2021/12/23 04:05:27;;;;;;;119.70;67.00;;;;;;;-8.33;96.61;99627.41;102393;1310;71079;-78
2021/12/23 04:07:53;;;;;;;115.50;68.90;;;;;;;-8.39;96.69;99622.48;101937;1314;72959;-78
2021/12/23 04:10:21;;;;;;;128.30;73.20;;;;;;;-8.45;96.64;99620.33;102285;1310;61361;-79
2021/12/23 04:12:50;;;;;;;116.50;66.80;;;;;;;-8.50;96.61;99620.24;102379;1310;61327;-79
2021/12/23 04:15:19;;;;;;;121.70;66.30;;;;;;;-8.56;96.52;99621.14;102307;1310;75549;-78
2021/12/23 04:17:46;;;;;;;125.10;65.60;;;;;;;-8.62;96.64;99612.59;102498;1310;69545;-78
2021/12/23 04:20:20;;;;;;;117.90;66.50;;;;;;;-8.62;96.82;99609.99;102406;1311;73938;-78
2021/12/23 04:22:51;;;;;;;113.70;64.70;;;;;;;-8.66;96.69;99605.45;101680;1311;1003088;-78
2021/12/23 04:25:19;;;;;;;123.40;67.80;;;;;;;-8.71;96.48;99606.04;102352;1310;61914;-78
2021/12/23 04:27:48;;;;;;;117.60;65.90;;;;;;;-8.75;96.72;99608.01;102412;1310;76458;-78
2021/12/23 04:30:16;;;;;;;119.10;63.10;;;;;;;-8.77;96.68;99603.85;102347;1310;69767;-78
2021/12/23 04:32:43;;;;;;;118.50;65.10;;;;;;;-8.81;96.68;99604.96;102379;1311;73524;-78
2021/12/23 04:35:10;;;;;;;114.40;65.10;;;;;;;-8.82;96.75;99600.45;102240;1313;61326;-78
2021/12/23 04:37:38;;;;;;;119.10;65.30;;;;;;;-8.85;96.63;99594.02;102327;1310;61332;-78
2021/12/23 04:40:08;;;;;;;109.60;63.90;;;;;;;-8.91;96.46;99591.52;102402;1310;76547;-79
2021/12/23 04:42:36;;;;;;;115.70;63.50;;;;;;;-8.96;96.57;99592.09;102428;1310;70075;-78
2021/12/23 04:45:04;;;;;;;116.70;64.20;;;;;;;-8.98;96.66;99587.56;101820;1310;1003744;-78
2021/12/23 04:47:31;;;;;;;116.60;66.30;;;;;;;-8.99;96.76;99581.54;102535;1310;61215;-79
2021/12/23 04:49:58;;;;;;;114.40;65.30;;;;;;;-9.00;96.76;99574.27;102562;1310;62052;-79
2021/12/23 04:52:25;;;;;;;116.20;65.70;;;;;;;-9.02;96.79;99574.39;102314;1310;75386;-78
2021/12/23 04:54:52;;;;;;;125.00;68.90;;;;;;;-9.03;96.61;99570.58;102251;1313;69358;-78
2021/12/23 04:57:18;;;;;;;111.70;65.10;;;;;;;-9.05;96.66;99567.46;102024;1314;71299;-79
2021/12/23 04:59:45;;;;;;;116.60;65.10;;;;;;;-9.08;96.68;99565.88;102253;1313;61468;-78
2021/12/23 05:02:11;;;;;;;114.80;64.70;;;;;;;-9.10;96.62;99559.45;101842;1316;61554;-78
2021/12/23 05:04:38;;;;;;;122.50;65.00;;;;;;;-9.12;96.58;99555.46;102268;1310;73413;-80
2021/12/23 05:07:04;;;;;;;115.40;63.80;;;;;;;-9.15;96.55;99553.15;102304;1317;70358;-78
2021/12/23 05:09:31;;;;;;;116.70;64.70;;;;;;;-9.16;96.54;99553.13;102283;1316;74236;-79
2021/12/23 05:11:57;;;;;;;107.80;63.20;;;;;;;-9.19;96.63;99548.94;102364;1316;61311;-79
2021/12/23 05:14:24;;;;;;;112.20;62.40;;;;;;;-9.19;96.80;99546.17;102301;1319;60485;-77
2021/12/23 05:16:50;;;;;;;118.70;66.80;;;;;;;-9.17;96.95;99547.93;101292;1318;1003072;-77
2021/12/23 05:19:17;;;;;;;120.70;65.40;;;;;;;-9.17;96.88;99545.02;102270;1310;61321;-77
2021/12/23 05:21:43;;;;;;;116.20;62.90;;;;;;;-9.17;96.93;99541.23;102275;1311;61407;-78
2021/12/23 05:24:10;;;;;;;112.40;64.70;;;;;;;-9.18;96.84;99540.86;102363;1311;61327;-78
2021/12/23 05:26:36;;;;;;;116.70;66.00;;;;;;;-9.18;96.87;99533.81;102279;1313;61332;-78
2021/12/23 05:29:03;;;;;;;127.00;67.50;;;;;;;-9.17;96.96;99531.09;102050;1316;74811;-79
2021/12/23 05:31:30;;;;;;;108.90;66.70;;;;;;;-9.19;96.87;99525.19;102286;1311;70235;-77
2021/12/23 05:33:56;;;;;;;122.50;69.50;;;;;;;-9.20;96.90;99521.55;102318;1310;74509;-78
2021/12/23 05:36:23;;;;;;;159.90;87.60;;;;;;;-9.22;96.73;99523.59;102330;1310;61399;-79
2021/12/23 05:38:49;;;;;;;152.10;89.80;;;;;;;-9.25;96.81;99520.08;102304;1317;61290;-80
2021/12/23 05:41:16;;;;;;;138.10;77.40;;;;;;;-9.26;96.76;99518.00;101690;1310;1003205;-78
2021/12/23 05:43:42;;;;;;;133.40;74.50;;;;;;;-9.27;96.74;99517.95;102396;1310;70338;-79
2021/12/23 05:46:09;;;;;;;134.60;77.60;;;;;;;-9.30;96.59;99523.42;102005;1305;72363;-77
2021/12/23 05:48:36;;;;;;;129.20;72.50;;;;;;;-9.30;96.84;99524.10;102277;1310;61434;-78
2021/12/23 05:51:02;;;;;;;124.70;72.20;;;;;;;-9.27;96.90;99520.21;102293;1310;61386;-77
2021/12/23 05:53:29;;;;;;;141.20;80.30;;;;;;;-9.28;96.81;99513.66;102477;1317;61303;-77
2021/12/23 05:55:56;;;;;;;162.60;90.60;;;;;;;-9.28;96.82;99507.80;101705;1316;1003178;-78
2021/12/23 05:58:22;;;;;;;177.30;93.60;;;;;;;-9.29;96.78;99517.08;101735;1316;1003442;-77
2021/12/23 06:00:49;;;;;;;149.30;80.90;;;;;;;-9.30;96.77;99516.86;102965;1314;61296;-77
2021/12/23 06:03:15;;;;;;;144.00;77.80;;;;;;;-9.33;96.71;99516.98;104037;1317;61203;-78
2021/12/23 06:05:42;;;;;;;132.70;75.30;;;;;;;-9.34;96.75;99512.31;103619;1317;75578;-78
2021/12/23 06:08:08;;;;;;;125.90;72.20;;;;;;;-9.34;96.89;99497.36;103023;1310;69807;-78
2021/12/23 06:10:35;;;;;;;131.30;73.40;;;;;;;-9.33;96.92;99491.17;102496;1310;61358;-78
2021/12/23 06:13:01;;;;;;;130.00;74.60;;;;;;;-9.32;97.05;99488.27;102518;1310;62162;-78
2021/12/23 06:15:28;;;;;;;123.60;72.20;;;;;;;-9.29;97.05;99483.86;102485;1310;62161;-77
2021/12/23 06:17:55;;;;;;;118.00;67.90;;;;;;;-9.28;97.07;99488.88;102430;1310;76323;-78
2021/12/23 06:20:21;;;;;;;117.40;66.20;;;;;;;-9.30;96.85;99485.73;102076;1318;61403;-78
2021/12/23 06:22:48;;;;;;;107.30;62.50;;;;;;;-9.33;96.73;99482.23;102476;1316;73568;-78
2021/12/23 06:25:15;;;;;;;111.80;62.80;;;;;;;-9.34;96.84;99483.77;102453;1310;61580;-77
2021/12/23 06:27:43;;;;;;;107.60;59.90;;;;;;;-9.28;97.16;99485.25;102185;1310;61315;-78
2021/12/23 06:30:19;;;;;;;114.10;64.50;;;;;;;-9.22;97.29;99480.73;102538;1316;75030;-77
2021/12/23 06:32:52;;;;;;;116.60;64.80;;;;;;;-9.20;97.06;99473.02;102497;1310;68913;-78
2021/12/23 06:35:21;;;;;;;104.70;61.30;;;;;;;-9.19;97.04;99469.42;102470;1310;71478;-77
2021/12/23 06:37:48;;;;;;;107.60;64.50;;;;;;;-9.23;96.62;99466.77;102445;1317;61244;-75
2021/12/23 06:40:15;;;;;;;113.10;63.80;;;;;;;-9.27;96.60;99468.59;102324;1317;61341;-78
2021/12/23 06:42:42;;;;;;;110.20;62.70;;;;;;;-9.30;96.59;99469.91;102438;1310;76425;-78
2021/12/23 06:45:09;;;;;;;107.60;62.00;;;;;;;-9.31;96.57;99468.00;102125;1314;68730;-78
2021/12/23 06:47:37;;;;;;;110.10;62.20;;;;;;;-9.34;96.42;99469.31;102407;1310;73924;-78
2021/12/23 06:50:09;;;;;;;111.70;60.90;;;;;;;-9.36;96.45;99471.68;102316;1310;61364;-78
2021/12/23 06:52:37;;;;;;;127.90;66.40;;;;;;;-9.34;96.61;99469.66;102544;1310;61337;-77
2021/12/23 06:55:06;;;;;;;115.60;66.80;;;;;;;-9.32;96.56;99468.15;102422;1316;75281;-78
2021/12/23 06:57:33;;;;;;;111.80;62.60;;;;;;;-9.30;96.61;99466.98;102303;1310;70212;-78
2021/12/23 07:00:00;;;;;;;136.70;79.90;;;;;;;-9.28;96.63;99468.57;102249;1317;74377;-78
2021/12/23 07:02:27;;;;;;;133.40;72.70;;;;;;;-9.20;96.78;99470.27;102287;1316;61288;-77
2021/12/23 07:04:53;;;;;;;135.40;74.10;;;;;;;-9.14;96.82;99468.50;102264;1316;61422;-78
2021/12/23 07:07:29;;;;;;;132.50;76.60;;;;;;;-9.06;96.88;99465.71;102290;1313;76131;-79
2021/12/23 07:09:56;;;;;;;129.10;75.90;;;;;;;-8.96;97.10;99459.38;101591;1310;1003801;-78
2021/12/23 07:12:23;;;;;;;128.40;74.50;;;;;;;-8.86;97.01;99457.15;102305;1310;74296;-78
2021/12/23 07:14:50;;;;;;;138.80;78.30;;;;;;;-8.78;97.02;99452.13;102510;1316;61297;-80
2021/12/23 07:17:17;;;;;;;154.40;92.10;;;;;;;-8.70;96.95;99447.61;102384;1317;61275;-77
2021/12/23 07:19:44;;;;;;;148.60;88.20;;;;;;;-8.62;96.93;99447.41;101743;1310;1002570;-78
2021/12/23 07:22:11;;;;;;;158.30;87.70;;;;;;;-8.54;96.81;99451.34;102516;1310;69506;-78
2021/12/23 07:24:39;;;;;;;148.70;87.40;;;;;;;-8.47;96.92;99459.90;102318;1310;71637;-77
2021/12/23 07:27:06;;;;;;;149.10;84.80;;;;;;;-8.38;96.87;99459.85;102277;1310;61433;-78
2021/12/23 07:29:33;;;;;;;148.80;87.10;;;;;;;-8.28;96.82;99457.40;102341;1316;61466;-78
2021/12/23 07:32:02;;;;;;;152.30;87.30;;;;;;;-8.19;96.88;99450.30;102290;1310;76375;-78
2021/12/23 07:34:30;;;;;;;195.50;106.90;;;;;;;-8.10;96.75;99441.65;102337;1316;69200;-78
2021/12/23 07:36:57;;;;;;;184.20;103.70;;;;;;;-8.02;96.69;99436.76;102358;1317;72996;-78
2021/12/23 07:39:24;;;;;;;182.60;100.80;;;;;;;-7.94;96.61;99430.84;102327;1316;61725;-80
2021/12/23 07:41:51;;;;;;;181.50;101.30;;;;;;;-7.84;96.64;99431.84;102457;1310;61337;-78
2021/12/23 07:44:20;;;;;;;193.00;101.30;;;;;;;-7.75;96.57;99425.77;102293;1311;76565;-79
2021/12/23 07:46:49;;;;;;;171.80;102.40;;;;;;;-7.64;96.42;99426.08;102299;1313;68874;-80
2021/12/23 07:49:17;;;;;;;185.40;102.90;;;;;;;-7.50;96.51;99426.77;102354;1310;73300;-77
2021/12/23 07:51:44;;;;;;;195.00;110.00;;;;;;;-7.38;96.30;99421.40;101622;1310;1002957;-78
2021/12/23 07:54:11;;;;;;;200.60;114.30;;;;;;;-7.24;96.18;99414.31;102327;1310;62343;-79
2021/12/23 07:56:38;;;;;;;171.00;96.30;;;;;;;-7.08;96.16;99413.11;102361;1310;164586;-78
2021/12/23 07:59:05;;;;;;;157.50;90.00;;;;;;;-6.93;95.98;99410.82;102506;1316;69256;-80
2021/12/23 08:01:32;;;;;;;155.80;88.50;;;;;;;-6.82;95.72;99410.93;102025;1317;73353;-79
2021/12/23 08:03:58;;;;;;;149.90;88.30;;;;;;;-6.73;95.69;99410.49;102385;1311;61315;-79
2021/12/23 08:06:26;;;;;;;161.60;93.40;;;;;;;-6.64;95.55;99408.00;102450;1310;61313;-78
2021/12/23 08:08:53;;;;;;;149.20;88.30;;;;;;;-6.57;95.28;99406.14;102347;1310;75517;-78
2021/12/23 08:11:20;;;;;;;147.10;86.80;;;;;;;-6.52;95.32;99400.66;102490;1316;70048;-78
2021/12/23 08:13:47;;;;;;;167.20;98.90;;;;;;;-6.46;95.33;99401.40;102362;1310;73915;-77
2021/12/23 08:16:13;;;;;;;177.10;105.20;;;;;;;-6.38;95.54;99401.80;102016;1316;61193;-78
2021/12/23 08:18:40;;;;;;;155.70;94.40;;;;;;;-6.29;95.54;99403.25;102318;1310;61302;-78
2021/12/23 08:21:07;;;;;;;175.50;102.60;;;;;;;-6.24;95.38;99405.54;102366;1310;75000;-79
2021/12/23 08:23:34;;;;;;;171.20;96.40;;;;;;;-6.18;95.43;99394.86;102447;1311;69821;-79
2021/12/23 08:26:03;;;;;;;168.00;97.80;;;;;;;-6.11;95.21;99391.79;102415;1310;73567;-80
2021/12/23 08:28:31;;;;;;;186.50;101.20;;;;;;;-6.05;95.09;99383.88;102417;1317;61333;-78
2021/12/23 08:30:58;;;;;;;175.30;98.10;;;;;;;-5.96;94.99;99376.65;102429;1317;61313;-78
2021/12/23 08:33:25;;;;;;;146.60;88.90;;;;;;;-5.85;95.06;99370.63;102305;1313;76375;-78
2021/12/23 08:35:51;;;;;;;139.10;87.50;;;;;;;-5.74;94.88;99365.15;102248;1314;70394;-79
2021/12/23 08:38:19;;;;;;;137.90;84.90;;;;;;;-5.60;94.85;99365.38;102031;1316;73350;-79
2021/12/23 08:40:46;;;;;;;140.70;84.40;;;;;;;-5.50;94.61;99358.83;102370;1313;61338;-77
2021/12/23 08:43:13;;;;;;;138.30;83.90;;;;;;;-5.41;94.59;99360.27;102506;1314;61389;-78
2021/12/23 08:45:41;;;;;;;136.70;84.50;;;;;;;-5.35;94.39;99354.20;102480;1310;76296;-78
2021/12/23 08:48:07;;;;;;;141.20;87.00;;;;;;;-5.31;94.21;99349.54;102483;1316;69458;-78
2021/12/23 08:50:34;;;;;;;148.10;90.20;;;;;;;-5.22;94.26;99345.57;102286;1316;73526;-78
2021/12/23 08:53:03;;;;;;;150.70;91.10;;;;;;;-5.14;94.05;99345.59;102501;1313;61325;-79
2021/12/23 08:55:31;;;;;;;161.10;94.50;;;;;;;-5.06;94.15;99338.16;102620;1312;61386;-78
2021/12/23 08:58:03;;;;;;;160.60;92.10;;;;;;;-4.94;94.01;99338.69;102578;1311;75583;-78
2021/12/23 09:00:32;;;;;;;147.60;90.40;;;;;;;-4.85;93.90;99336.27;102428;1310;69281;-76
2021/12/23 09:02:59;;;;;;;143.80;89.70;;;;;;;-4.73;94.00;99327.44;102271;1316;74560;-76
2021/12/23 09:05:25;;;;;;;161.70;94.20;;;;;;;-4.62;93.93;99321.70;102271;1310;61393;-75
2021/12/23 09:07:52;;;;;;;157.90;94.80;;;;;;;-4.53;93.82;99322.05;102414;1310;61280;-75
2021/12/23 09:10:20;;;;;;;156.30;91.70;;;;;;;-4.41;93.77;99315.98;102259;1310;76514;-77
2021/12/23 09:12:47;;;;;;;146.00;87.70;;;;;;;-4.27;93.66;99309.86;102361;1316;70638;-76
2021/12/23 09:15:14;;;;;;;148.50;91.50;;;;;;;-4.15;93.47;99305.33;102497;1316;71674;-76
2021/12/23 09:17:41;;;;;;;138.80;89.10;;;;;;;-4.04;93.46;99298.88;102356;1317;61598;-76
2021/12/23 09:20:10;;;;;;;140.30;86.20;;;;;;;-3.94;93.32;99286.69;102423;1310;61371;-76
2021/12/23 09:22:38;;;;;;;149.80;91.00;;;;;;;-3.88;93.06;99279.38;102504;1313;74790;-76
2021/12/23 09:25:11;;;;;;;151.50;92.60;;;;;;;-3.79;93.04;99265.97;102364;1317;70490;-76
2021/12/23 09:28:29;;;;;;;146.30;90.20;;;;;;;-3.72;92.98;99260.02;101826;1317;73240;-77
2021/12/23 09:33:16;;;;;;;136.60;85.10;;;;;;;-3.48;92.71;99243.92;102290;1317;61328;-77
2021/12/23 09:35:44;;;;;;;148.70;95.80;;;;;;;-3.39;92.58;99240.73;102021;1314;75630;-75
2021/12/23 09:38:11;;;;;;;140.50;86.70;;;;;;;-3.25;92.53;99242.21;102353;1316;69328;-75
2021/12/23 09:40:40;;;;;;;127.80;85.20;;;;;;;-3.16;92.58;99242.14;102478;1310;73476;-76
2021/12/23 09:43:10;;;;;;;143.60;87.50;;;;;;;-3.06;92.32;99226.07;102608;1314;61388;-77
2021/12/23 09:45:39;;;;;;;216.40;116.40;;;;;;;-2.97;92.35;99221.13;102616;1316;61371;-77
2021/12/23 09:48:06;;;;;;;161.80;97.20;;;;;;;-2.92;92.28;99208.73;102509;1313;76316;-76
2021/12/23 09:50:37;;;;;;;142.90;87.60;;;;;;;-2.84;92.51;99205.53;102535;1316;69307;-76
2021/12/23 09:53:05;;;;;;;147.20;91.20;;;;;;;-2.80;92.53;99202.02;102548;1316;73523;-75
2021/12/23 09:55:34;;;;;;;136.00;84.80;;;;;;;-2.74;92.44;99203.00;102418;1310;61320;-77
2021/12/23 09:58:02;;;;;;;136.00;83.40;;;;;;;-2.68;92.30;99203.11;102436;1311;61326;-76
2021/12/23 10:00:32;;;;;;;129.20;78.80;;;;;;;-2.61;92.29;99197.48;102467;1317;75193;-77
2021/12/23 10:02:59;;;;;;;;;;;;;;;-2.54;92.12;99186.96;102488;1317;70872;-75
2021/12/23 10:05:32;;;;;;;120.70;78.80;;;;;;;-2.48;92.06;99183.23;102489;1310;72908;-76
2021/12/23 10:07:58;;;;;;;123.10;78.90;;;;;;;-2.39;91.99;99172.88;102515;1316;61215;-77
2021/12/23 10:11:21;;;;;;;126.10;83.00;;;;;;;-2.28;91.93;99165.25;102333;1313;61569;-76
2021/12/23 10:38:27;;;;;;;119.70;76.00;;;;;;;-0.88;91.20;99084.66;102405;1317;61400;-75
2021/12/23 10:41:05;;;;;;;106.20;68.50;;;;;;;-0.82;90.99;99079.83;102379;1316;76015;-76
2021/12/23 10:43:31;;;;;;;101.30;66.00;;;;;;;-0.75;90.85;99066.27;102401;1316;69045;-76
2021/12/23 10:46:08;;;;;;;104.40;67.80;;;;;;;-0.69;90.70;99061.08;101600;1316;1003734;-76
2021/12/23 11:00:18;;;;;;;121.40;72.70;;;;;;;-0.34;90.44;99016.35;102959;1317;72805;-82
2021/12/23 11:03:05;;;;;;;115.40;68.50;;;;;;;-0.29;90.23;99003.14;102753;1310;61351;-82
2021/12/23 11:05:38;;;;;;;279.30;127.40;;;;;;;-0.26;89.97;98997.48;103000;1316;61389;-82
2021/12/23 11:11:17;;;;;;;64.80;39.70;;;;;;;-0.19;89.54;98987.55;102608;1316;69611;-82
2021/12/23 11:32:24;;;;;;;47.10;33.80;;;;;;;-0.09;88.17;98951.35;102311;1316;61471;-82
2021/12/23 11:42:05;;;;;;;46.80;28.00;;;;;;;0.14;87.74;98927.37;102810;1310;72234;-83
2021/12/23 11:44:33;;;;;;;39.70;30.30;;;;;;;0.17;87.43;98916.23;102861;1316;61729;-84
2021/12/23 11:47:09;;;;;;;37.40;25.80;;;;;;;0.21;87.30;98908.83;102922;1310;61310;-84
2021/12/23 11:49:39;;;;;;;33.40;21.80;;;;;;;0.28;87.28;98903.23;102409;1313;73437;-83
2021/12/23 11:52:07;;;;;;;32.60;22.00;;;;;;;0.29;86.85;98897.44;102760;1310;69498;-84
2021/12/23 11:54:37;;;;;;;32.60;22.50;;;;;;;0.30;86.62;98898.45;102847;1318;73324;-84
2021/12/23 11:57:05;;;;;;;;;;;;;;;0.31;86.45;98889.01;102862;1316;61419;-83
2021/12/23 11:59:36;;;;;;;37.00;26.00;;;;;;;0.32;86.35;98889.67;102751;1316;61342;-84
2021/12/23 12:02:13;;;;;;;29.90;18.90;;;;;;;0.30;86.07;98894.45;102302;1318;75740;-85
2021/12/23 12:04:40;;;;;;;29.40;17.40;;;;;;;0.28;85.89;98896.25;102769;1316;68209;-84
2021/12/23 12:07:15;;;;;;;27.30;17.30;;;;;;;0.26;85.60;98890.17;102723;1316;72719;-84
2021/12/23 12:10:09;;;;;;;25.30;18.10;;;;;;;0.28;85.71;98885.08;102721;1316;61472;-84
2021/12/23 12:13:00;;;;;;;27.50;17.50;;;;;;;0.31;85.60;98880.96;102374;1314;61361;-85
2021/12/23 12:15:39;;;;;;;31.40;19.70;;;;;;;0.28;85.44;98872.28;103018;1313;77179;-81
2021/12/23 12:18:09;;;;;;;28.70;18.80;;;;;;;0.30;85.66;98868.59;102801;1316;69280;-85
2021/12/23 12:20:54;;;;;;;32.50;19.20;;;;;;;0.29;85.31;98868.95;102835;1310;73287;-86
2021/12/23 12:23:40;;;;;;;29.90;20.30;;;;;;;0.29;85.29;98863.55;102553;1317;61371;-83
2021/12/23 12:26:23;;;;;;;27.40;19.00;;;;;;;0.36;85.38;98854.25;102869;1316;62428;-84